Time;durP1;ratioP1;P1;durP2;ratioP2;P2;SDS_P1;SDS_P2;PMS_P1;PMS_P2;Temp;Humidity;BMP_temperature;BMP_pressure;BME280_temperature;BME280_humidity;BME280_pressure;Samples;Min_cycle;Max_cycle;Signal;HPM_P1;HPM_P2
2022/03/10 10:01:38;;;;;;;5.20;3.75;;;15.20;63.70;;;;;;2299634;62;30108;-69
2022/03/10 10:04:06;;;;;;;5.18;3.92;;;15.10;62.80;;;;;;2291378;62;30043;-69
2022/03/10 10:07:05;;;;;;;4.72;4.00;;;15.10;63.80;;;;;;2291411;62;30339;-68
2022/03/10 10:09:45;;;;;;;4.78;3.97;;;15.10;64.70;;;;;;2283861;62;30168;-68
2022/03/10 10:12:15;;;;;;;5.43;3.90;;;15.10;65.50;;;;;;2277370;62;29987;-69
2022/03/10 10:14:42;;;;;;;4.32;3.90;;;15.00;66.10;;;;;;2283980;62;29968;-68
2022/03/10 10:17:08;;;;;;;5.82;3.60;;;15.00;66.50;;;;;;2291390;62;29924;-68
2022/03/10 10:19:36;;;;;;;4.25;3.85;;;15.00;66.90;;;;;;2277134;62;30109;-69
2022/03/10 10:22:16;;;;;;;5.22;4.10;;;15.00;67.10;;;;;;2291169;62;30322;-72
2022/03/10 10:24:55;;;;;;;4.38;3.97;;;15.00;66.70;;;;;;2283963;62;30009;-72
2022/03/10 10:27:23;;;;;;;4.38;3.97;;;14.90;66.90;;;;;;2283886;62;30395;-72
2022/03/10 10:29:50;;;;;;;4.70;3.92;;;14.90;67.50;;;;;;2291003;62;30016;-70
2022/03/10 10:32:52;;;;;;;4.40;4.00;;;14.90;67.60;;;;;;2291201;62;30125;-73
2022/03/10 10:35:21;;;;;;;5.05;4.55;;;14.90;66.90;;;;;;2278503;62;30049;-73
2022/03/10 10:37:56;;;;;;;4.35;3.95;;;14.90;67.70;;;;;;2283819;62;30162;-72
2022/03/10 10:40:23;;;;;;;4.32;3.92;;;14.90;67.40;;;;;;2277005;62;30815;-73
2022/03/10 10:42:49;;;;;;;5.88;4.05;;;14.90;67.60;;;;;;2276590;62;30552;-73
2022/03/10 10:45:35;;;;;;;4.18;3.88;;;14.90;67.60;;;;;;2291092;62;30153;-73
2022/03/10 10:48:02;;;;;;;4.43;4.03;;;14.90;66.80;;;;;;2290917;62;30080;-73
2022/03/10 10:50:35;;;;;;;4.13;3.72;;;14.90;67.60;;;;;;2290957;62;30294;-73
2022/03/10 10:53:02;;;;;;;4.80;4.05;;;14.90;67.20;;;;;;2276300;62;30106;-72
2022/03/10 10:55:32;;;;;;;4.40;3.90;;;14.90;67.50;;;;;;2290479;62;30846;-72
2022/03/10 10:58:04;;;;;;;4.40;3.92;;;14.90;67.30;;;;;;2290202;62;30003;-73
2022/03/10 11:00:38;;;;;;;4.43;4.03;;;14.90;67.10;;;;;;2282171;62;31323;-72
2022/03/10 11:03:18;;;;;;;5.30;4.47;;;15.00;67.30;;;;;;2283569;62;30150;-73
2022/03/10 11:05:47;;;;;;;7.45;4.53;;;15.00;66.90;;;;;;2280339;62;30820;-72
2022/03/10 11:08:12;;;;;;;4.38;3.97;;;15.00;67.20;;;;;;2282185;62;30408;-72
2022/03/10 11:10:39;;;;;;;4.30;3.90;;;15.00;67.20;;;;;;2282621;62;30797;-75
2022/03/10 11:13:05;;;;;;;4.30;3.90;;;15.00;67.10;;;;;;2262261;62;30158;-73
2022/03/10 11:15:31;;;;;;;5.38;3.95;;;15.00;67.10;;;;;;2276862;62;30249;-72
2022/03/10 11:17:57;;;;;;;5.80;3.85;;;15.10;67.10;;;;;;2276856;62;30002;-74
2022/03/10 11:20:23;;;;;;;4.85;4.13;;;15.10;67.00;;;;;;2277211;62;30954;-70
2022/03/10 11:23:04;;;;;;;4.88;3.97;;;15.10;66.90;;;;;;2269892;62;29975;-71
2022/03/10 11:25:56;;;;;;;4.40;4.00;;;15.10;66.70;;;;;;2277095;62;30398;-72
2022/03/10 11:28:30;;;;;;;4.40;4.00;;;15.20;66.90;;;;;;2264376;62;30145;-70
2022/03/10 11:30:59;;;;;;;4.07;3.67;;;15.20;66.80;;;;;;2277211;62;29997;-74
2022/03/10 11:33:29;;;;;;;6.13;4.00;;;15.30;67.50;;;;;;2269711;62;31061;-72
2022/03/10 11:35:55;;;;;;;7.97;3.78;;;15.30;66.60;;;;;;2275965;62;30076;-72
2022/03/10 11:38:21;;;;;;;7.40;4.13;;;15.30;66.60;;;;;;2285286;62;29955;-71
2022/03/10 11:40:48;;;;;;;5.35;3.80;;;15.40;66.60;;;;;;2270904;62;30040;-71
2022/03/10 11:43:33;;;;;;;6.13;4.00;;;15.40;66.50;;;;;;2285359;62;31691;-71
2022/03/10 11:46:15;;;;;;;5.65;3.83;;;15.40;66.20;;;;;;2274956;62;30433;-71
2022/03/10 11:48:42;;;;;;;5.43;3.60;;;15.50;66.30;;;;;;2277218;62;30113;-71
2022/03/10 11:51:12;;;;;;;5.05;3.45;;;15.50;66.50;;;;;;2277142;62;30053;-72
2022/03/10 11:53:55;;;;;;;5.65;3.80;;;15.50;66.50;;;;;;2262714;62;30832;-71
2022/03/10 11:56:57;;;;;;;4.63;3.63;;;15.60;66.30;;;;;;2277084;62;30212;-71
2022/03/10 11:59:24;;;;;;;5.13;3.70;;;15.60;66.30;;;;;;2276913;62;30906;-71
2022/03/10 12:01:50;;;;;;;4.22;3.80;;;15.60;67.10;;;;;;2269602;62;31201;-71
2022/03/10 12:04:17;;;;;;;4.47;4.03;;;15.70;66.40;;;;;;2277043;62;31919;-72
2022/03/10 12:06:49;;;;;;;3.70;3.40;;;15.70;66.30;;;;;;2277194;62;30176;-72
2022/03/10 12:09:29;;;;;;;5.05;3.60;;;15.70;66.20;;;;;;2276971;62;30134;-72
2022/03/10 12:12:11;;;;;;;8.93;3.67;;;15.80;66.10;;;;;;2277143;62;30809;-72
2022/03/10 12:14:37;;;;;;;4.45;3.70;;;15.80;66.20;;;;;;2276714;62;30192;-71
2022/03/10 12:17:03;;;;;;;3.90;3.60;;;15.80;66.10;;;;;;2276928;62;30639;-72
2022/03/10 12:20:08;;;;;;;4.38;3.45;;;15.90;66.00;;;;;;2273649;62;30075;-72
2022/03/10 12:22:35;;;;;;;3.90;3.60;;;15.90;65.60;;;;;;2277434;62;30035;-72
2022/03/10 12:25:18;;;;;;;5.53;3.58;;;16.00;65.90;;;;;;2277430;62;30625;-73
2022/03/10 12:27:51;;;;;;;3.65;3.35;;;16.00;65.50;;;;;;2285104;62;29979;-72
2022/03/10 12:30:21;;;;;;;6.15;3.50;;;16.00;65.70;;;;;;2283838;62;30238;-73
2022/03/10 12:32:49;;;;;;;4.97;3.70;;;16.10;65.70;;;;;;2270736;62;31486;-73
2022/03/10 12:35:15;;;;;;;5.15;3.92;;;16.10;65.60;;;;;;2284778;62;30515;-73
2022/03/10 12:37:48;;;;;;;4.03;3.63;;;16.20;65.50;;;;;;2285017;62;30148;-72
2022/03/10 12:40:25;;;;;;;4.13;3.72;;;16.20;65.30;;;;;;2283978;62;30212;-73
2022/03/10 12:42:51;;;;;;;4.13;3.72;;;16.30;65.20;;;;;;2284608;62;31050;-72
2022/03/10 12:45:21;;;;;;;4.72;3.67;;;16.30;65.30;;;;;;2284772;62;30409;-72
2022/03/10 12:47:49;;;;;;;4.18;3.58;;;16.40;65.10;;;;;;2277414;62;29948;-73
2022/03/10 12:50:15;;;;;;;4.35;3.50;;;16.40;65.10;;;;;;2284666;62;30063;-72
2022/03/10 12:52:41;;;;;;;4.18;3.75;;;16.50;65.00;;;;;;2277534;62;30243;-72
2022/03/10 12:55:08;;;;;;;3.38;3.10;;;16.50;64.90;;;;;;2277524;62;32418;-72
2022/03/10 12:57:37;;;;;;;4.03;3.35;;;16.60;64.80;;;;;;2268937;62;30718;-73
2022/03/10 13:00:23;;;;;;;3.70;3.40;;;16.70;64.60;;;;;;2276533;62;30218;-73
2022/03/10 13:02:58;;;;;;;4.53;3.38;;;16.70;63.80;;;;;;2242505;62;30322;-72
2022/03/10 13:05:26;;;;;;;4.88;4.10;;;16.80;64.00;;;;;;2277300;62;31574;-73
2022/03/10 13:07:54;;;;;;;9.45;4.50;;;16.90;64.00;;;;;;2277604;62;30229;-73
2022/03/10 13:10:20;;;;;;;6.45;4.53;;;16.90;63.70;;;;;;2270528;62;30159;-73
2022/03/10 13:12:52;;;;;;;5.88;5.28;;;16.90;63.10;;;;;;2263617;62;33311;-73
2022/03/10 13:15:22;;;;;;;7.25;5.15;;;17.00;63.00;;;;;;2284917;62;30329;-73
2022/03/10 13:17:49;;;;;;;6.03;5.40;;;17.10;63.20;;;;;;2284712;62;30291;-73
2022/03/10 13:20:22;;;;;;;6.43;5.72;;;17.10;62.40;;;;;;2284469;62;30022;-73
2022/03/10 13:22:56;;;;;;;6.88;6.18;;;17.20;62.10;;;;;;2284899;62;30779;-73
2022/03/10 13:25:24;;;;;;;7.57;5.38;;;17.20;61.80;;;;;;2284559;62;30389;-73
2022/03/10 13:27:50;;;;;;;6.70;5.45;;;17.30;61.60;;;;;;2284651;62;29927;-73
2022/03/10 13:30:18;;;;;;;6.82;5.75;;;17.30;61.40;;;;;;2277279;62;30309;-73
2022/03/10 13:32:44;;;;;;;7.32;5.43;;;17.30;61.20;;;;;;2284354;62;30009;-73
2022/03/10 13:35:10;;;;;;;7.82;6.00;;;17.40;60.90;;;;;;2270314;62;30507;-73
2022/03/10 13:37:36;;;;;;;9.55;5.88;;;17.50;60.80;;;;;;2284647;62;30064;-73
2022/03/10 13:40:03;;;;;;;7.55;6.22;;;17.50;60.50;;;;;;2277072;62;30027;-73
2022/03/10 13:42:32;;;;;;;8.43;6.68;;;17.60;60.40;;;;;;2284677;62;31178;-73
2022/03/10 13:45:11;;;;;;;12.90;6.75;;;17.70;60.00;;;;;;2277338;62;30564;-73
2022/03/10 13:47:54;;;;;;;7.88;6.03;;;17.80;58.80;;;;;;2284456;62;29950;-73
2022/03/10 13:50:36;;;;;;;8.18;6.40;;;17.80;58.30;;;;;;2284008;62;30732;-71
2022/03/10 13:53:06;;;;;;;8.27;6.80;;;17.90;58.30;;;;;;2284306;62;30194;-71
2022/03/10 13:55:36;;;;;;;7.75;6.93;;;18.00;59.30;;;;;;2276845;62;30371;-72
2022/03/10 13:58:04;;;;;;;7.38;6.63;;;18.10;58.90;;;;;;2270250;62;30222;-71
2022/03/10 14:00:35;;;;;;;8.70;6.18;;;18.30;58.90;;;;;;2272744;62;30482;-71
2022/03/10 14:03:12;;;;;;;7.45;6.75;;;18.60;58.80;;;;;;2276317;62;30929;-72
2022/03/10 14:05:40;;;;;;;7.78;6.65;;;19.90;56.40;;;;;;2276293;62;30499;-72
2022/03/10 14:08:17;;;;;;;8.77;7.13;;;21.00;54.60;;;;;;2268686;62;30173;-71
2022/03/10 14:10:43;;;;;;;8.30;6.90;;;22.00;51.40;;;;;;2273659;62;30784;-72
2022/03/10 14:13:09;;;;;;;7.93;7.13;;;22.50;51.20;;;;;;2280716;62;31939;-71
2022/03/10 14:15:36;;;;;;;9.02;7.00;;;23.00;50.40;;;;;;2275047;62;30054;-72
2022/03/10 14:18:12;;;;;;;10.18;7.07;;;23.30;49.50;;;;;;2276018;62;30037;-72
2022/03/10 14:20:44;;;;;;;7.28;6.57;;;23.20;47.60;;;;;;2275936;62;31078;-72
2022/03/10 14:23:13;;;;;;;7.53;6.45;;;23.00;49.10;;;;;;2275739;62;31941;-72
2022/03/10 14:25:44;;;;;;;10.00;7.07;;;23.40;49.70;;;;;;2266934;62;30057;-72
2022/03/10 14:28:10;;;;;;;7.95;6.70;;;23.90;48.70;;;;;;2270268;62;30439;-72
2022/03/10 14:30:37;;;;;;;7.72;6.93;;;24.20;47.80;;;;;;2284379;62;30281;-72
2022/03/10 14:33:04;;;;;;;7.38;6.53;;;24.50;47.00;;;;;;2284186;62;31189;-72
2022/03/10 14:35:31;;;;;;;8.35;6.82;;;24.90;46.20;;;;;;2284060;62;30559;-72
2022/03/10 14:37:57;;;;;;;8.43;7.13;;;25.30;45.20;;;;;;2284265;62;30119;-72
2022/03/10 14:40:23;;;;;;;8.77;6.85;;;25.60;44.60;;;;;;2270033;62;30419;-73
2022/03/10 14:42:49;;;;;;;12.65;7.80;;;26.10;43.70;;;;;;2275635;62;30877;-73
2022/03/10 14:45:15;;;;;;;8.95;6.68;;;26.40;43.10;;;;;;2275990;62;30826;-73
2022/03/10 14:47:40;;;;;;;11.23;7.93;;;26.50;42.30;;;;;;2276941;62;30264;-73
2022/03/10 14:50:06;;;;;;;8.13;7.32;;;26.30;41.90;;;;;;2277091;62;30056;-73
2022/03/10 14:52:32;;;;;;;8.75;7.22;;;26.40;41.90;;;;;;2277057;62;31049;-73
2022/03/10 14:54:58;;;;;;;8.18;7.18;;;26.30;41.80;;;;;;2270066;62;30110;-74
2022/03/10 14:57:24;;;;;;;7.53;6.53;;;25.80;41.70;;;;;;2285263;62;30032;-74
2022/03/10 14:59:50;;;;;;;9.85;6.93;;;25.70;42.10;;;;;;2285518;62;30067;-73
2022/03/10 15:02:16;;;;;;;9.50;7.18;;;25.80;41.60;;;;;;2285499;62;30863;-76
2022/03/10 15:04:41;;;;;;;8.02;7.15;;;25.90;42.20;;;;;;2285118;62;30780;-74
2022/03/10 15:07:07;;;;;;;10.07;6.22;;;26.10;41.10;;;;;;2285441;62;30140;-74
2022/03/10 15:09:35;;;;;;;7.88;6.40;;;26.30;40.80;;;;;;2283806;62;31493;-74
2022/03/10 15:12:01;;;;;;;9.70;6.57;;;26.50;40.50;;;;;;2276776;62;30093;-74
2022/03/10 15:14:27;;;;;;;7.18;6.47;;;26.50;40.20;;;;;;2277233;62;30945;-74
2022/03/10 15:16:53;;;;;;;7.60;6.13;;;26.40;40.00;;;;;;2269325;62;30465;-74
2022/03/10 15:19:19;;;;;;;8.52;6.80;;;26.20;40.10;;;;;;2277349;62;30302;-74
2022/03/10 15:21:44;;;;;;;6.47;5.88;;;26.00;40.30;;;;;;2285037;62;31055;-74
2022/03/10 15:24:10;;;;;;;6.57;5.85;;;26.10;40.40;;;;;;2284842;62;31885;-74
2022/03/10 15:26:36;;;;;;;8.95;5.72;;;26.30;40.20;;;;;;2285527;62;29821;-74
2022/03/10 15:29:03;;;;;;;6.45;5.78;;;26.40;39.90;;;;;;2285218;62;29972;-75
2022/03/10 15:31:29;;;;;;;6.93;5.50;;;26.50;39.60;;;;;;2276419;62;30254;-74
2022/03/10 15:33:55;;;;;;;6.35;5.75;;;26.50;39.60;;;;;;2277218;62;30062;-75
2022/03/10 15:36:21;;;;;;;6.53;5.70;;;26.40;39.50;;;;;;2277196;62;30116;-74
2022/03/10 15:38:51;;;;;;;6.30;5.70;;;26.40;39.40;;;;;;2276893;62;30005;-75
2022/03/10 15:41:18;;;;;;;6.28;5.03;;;26.40;39.40;;;;;;2284911;62;30805;-75
2022/03/10 15:43:46;;;;;;;5.70;5.00;;;26.30;39.40;;;;;;2277913;62;30802;-75
2022/03/10 15:46:12;;;;;;;5.65;4.75;;;26.20;39.40;;;;;;2285120;62;30208;-75
2022/03/10 15:48:38;;;;;;;5.10;4.65;;;25.80;39.50;;;;;;2285361;62;30278;-75
2022/03/10 15:51:03;;;;;;;5.57;5.03;;;25.40;39.90;;;;;;2285368;62;30680;-74
2022/03/10 15:53:29;;;;;;;5.28;4.78;;;25.10;40.20;;;;;;2284946;62;30089;-74
2022/03/10 15:55:57;;;;;;;5.25;4.75;;;24.70;40.70;;;;;;2278753;62;30068;-72
2022/03/10 15:58:27;;;;;;;5.30;4.80;;;24.20;41.30;;;;;;2277320;62;30195;-72
2022/03/10 16:00:53;;;;;;;5.10;4.65;;;23.80;41.90;;;;;;2276685;62;30009;-71
2022/03/10 16:03:19;;;;;;;5.50;5.00;;;23.70;42.40;;;;;;2276903;62;30238;-72
2022/03/10 16:05:45;;;;;;;6.13;4.70;;;23.70;42.50;;;;;;2276858;62;30169;-72
2022/03/10 16:08:11;;;;;;;5.50;5.00;;;23.70;42.60;;;;;;2277302;62;30035;-72
2022/03/10 16:10:38;;;;;;;5.35;4.63;;;23.60;42.70;;;;;;2269638;62;31388;-72
2022/03/10 16:13:06;;;;;;;5.22;4.72;;;23.50;43.10;;;;;;2276854;62;30073;-72
2022/03/10 16:15:32;;;;;;;4.90;4.47;;;23.20;43.50;;;;;;2276706;62;30076;-72
2022/03/10 16:17:58;;;;;;;4.90;4.40;;;22.90;44.10;;;;;;2277435;62;30108;-72
2022/03/10 16:20:24;;;;;;;4.38;3.97;;;22.50;44.50;;;;;;2284708;62;29997;-75
2022/03/10 16:22:50;;;;;;;4.68;4.20;;;22.20;45.00;;;;;;2285139;62;30493;-73
2022/03/10 16:25:19;;;;;;;11.55;5.00;;;22.00;45.50;;;;;;2284444;62;30270;-73
2022/03/10 16:27:45;;;;;;;6.53;5.78;;;21.90;45.40;;;;;;2284187;62;30361;-73
2022/03/10 16:30:11;;;;;;;7.63;6.85;;;21.80;44.90;;;;;;2283242;62;30187;-73
2022/03/10 16:32:39;;;;;;;8.65;6.80;;;21.70;44.70;;;;;;2281242;62;30296;-74
2022/03/10 16:35:06;;;;;;;7.13;6.43;;;21.50;44.80;;;;;;2276025;62;30240;-73
2022/03/10 16:37:32;;;;;;;8.30;7.25;;;21.30;45.00;;;;;;2276860;62;30019;-72
2022/03/10 16:39:58;;;;;;;7.35;6.53;;;21.10;44.80;;;;;;2262847;62;31123;-72
2022/03/10 16:42:33;;;;;;;8.40;7.50;;;20.90;45.00;;;;;;2276920;62;30492;-73
2022/03/10 16:44:59;;;;;;;10.45;7.50;;;20.70;44.90;;;;;;2277234;62;30323;-72
2022/03/10 16:47:25;;;;;;;7.78;7.03;;;20.50;45.40;;;;;;2276425;62;30104;-72
2022/03/10 16:49:51;;;;;;;7.78;7.07;;;20.30;45.70;;;;;;2276271;62;30921;-73
2022/03/10 16:52:17;;;;;;;9.13;7.22;;;20.10;45.90;;;;;;2276556;62;30161;-71
2022/03/10 16:54:43;;;;;;;8.68;7.75;;;19.90;46.50;;;;;;2276577;62;30074;-71
2022/03/10 16:57:09;;;;;;;8.43;6.88;;;19.70;46.50;;;;;;2276462;62;30169;-71
2022/03/10 16:59:35;;;;;;;8.80;7.25;;;19.50;46.80;;;;;;2276535;62;30032;-71
2022/03/10 17:02:03;;;;;;;8.05;7.25;;;19.30;47.10;;;;;;2269086;62;30779;-72
2022/03/10 17:04:31;;;;;;;9.82;7.30;;;19.10;47.40;;;;;;2276133;62;30448;-72
2022/03/10 17:06:58;;;;;;;8.68;7.32;;;18.90;47.60;;;;;;2282202;62;30185;-72
2022/03/10 17:09:24;;;;;;;8.40;7.50;;;18.80;48.00;;;;;;2276970;62;30793;-73
2022/03/10 17:11:51;;;;;;;10.48;7.53;;;18.70;48.10;;;;;;2277121;62;30719;-70
2022/03/10 17:14:17;;;;;;;9.73;7.65;;;18.50;48.20;;;;;;2278526;62;30125;-70
2022/03/10 17:16:43;;;;;;;8.43;7.53;;;18.40;48.40;;;;;;2276284;62;30103;-70
2022/03/10 17:19:09;;;;;;;10.20;7.82;;;18.40;48.60;;;;;;2269053;62;30092;-70
2022/03/10 17:21:35;;;;;;;9.90;7.82;;;18.30;48.70;;;;;;2283541;62;31674;-70
2022/03/10 17:24:01;;;;;;;11.27;9.27;;;18.20;48.90;;;;;;2283506;62;30549;-70
2022/03/10 17:26:28;;;;;;;16.70;10.95;;;18.10;48.30;;;;;;2276262;62;30412;-70
2022/03/10 17:28:54;;;;;;;14.40;11.57;;;17.90;47.00;;;;;;2280794;62;30765;-71
2022/03/10 17:31:19;;;;;;;16.30;11.60;;;17.60;46.10;;;;;;2284224;62;30451;-70
2022/03/10 17:33:45;;;;;;;15.73;11.27;;;17.40;45.70;;;;;;2284594;62;30030;-71
2022/03/10 17:36:16;;;;;;;15.80;11.88;;;17.20;45.70;;;;;;2282583;62;31969;-70
2022/03/10 17:38:41;;;;;;;13.85;11.20;;;17.00;45.10;;;;;;2282783;62;30272;-70
2022/03/10 17:41:07;;;;;;;13.05;10.60;;;16.80;45.50;;;;;;2283678;62;30762;-70
2022/03/10 17:43:33;;;;;;;11.85;10.70;;;16.60;45.60;;;;;;2276232;62;30317;-70
2022/03/10 17:46:00;;;;;;;11.73;10.00;;;16.50;45.40;;;;;;2276012;62;30414;-70
2022/03/10 17:48:26;;;;;;;19.65;10.02;;;16.30;45.30;;;;;;2268816;62;30824;-71
2022/03/10 17:50:53;;;;;;;14.02;9.80;;;16.20;45.60;;;;;;2275624;62;30675;-72
2022/03/10 17:53:19;;;;;;;16.40;9.98;;;16.10;46.10;;;;;;2268776;62;30561;-72
2022/03/10 17:55:46;;;;;;;11.90;10.27;;;16.10;46.80;;;;;;2268789;62;30239;-71
2022/03/10 17:58:12;;;;;;;8.73;7.85;;;16.20;47.40;;;;;;2268699;62;30921;-72
2022/03/10 18:00:38;;;;;;;9.70;7.65;;;16.20;47.90;;;;;;2275942;62;30868;-71
2022/03/10 18:03:04;;;;;;;9.02;7.68;;;16.30;48.40;;;;;;2276277;62;30099;-71
2022/03/10 18:05:31;;;;;;;7.72;6.93;;;16.30;48.80;;;;;;2268797;62;30184;-71
2022/03/10 18:07:57;;;;;;;9.75;6.95;;;16.40;49.10;;;;;;2275739;62;29984;-71
2022/03/10 18:10:24;;;;;;;9.50;7.45;;;16.40;49.50;;;;;;2268865;62;30379;-72
2022/03/10 18:12:52;;;;;;;9.25;7.30;;;16.40;49.70;;;;;;2275711;62;30533;-71
2022/03/10 18:15:18;;;;;;;7.43;5.70;;;16.50;50.00;;;;;;2275793;62;30353;-71
2022/03/10 18:17:44;;;;;;;6.45;5.82;;;16.50;50.30;;;;;;2268653;62;30212;-72
2022/03/10 18:20:11;;;;;;;6.32;5.63;;;16.50;50.70;;;;;;2275601;62;31413;-71
2022/03/10 18:22:41;;;;;;;8.77;5.93;;;16.50;50.90;;;;;;2269282;62;30165;-72
2022/03/10 18:25:07;;;;;;;6.05;5.32;;;16.50;51.20;;;;;;2280395;62;30110;-72
2022/03/10 18:27:33;;;;;;;8.50;5.70;;;16.50;51.30;;;;;;2277906;62;30676;-73
2022/03/10 18:29:59;;;;;;;6.22;5.57;;;16.50;51.60;;;;;;2285581;62;30163;-71
2022/03/10 18:32:25;;;;;;;9.30;5.78;;;16.50;51.80;;;;;;2285593;62;30184;-70
2022/03/10 18:34:51;;;;;;;24.17;6.68;;;16.50;51.70;;;;;;2285351;62;30021;-71
2022/03/10 18:37:17;;;;;;;6.30;5.50;;;16.50;52.00;;;;;;2282043;62;30324;-71
2022/03/10 18:39:44;;;;;;;5.90;5.30;;;16.60;52.30;;;;;;2277779;62;30117;-70
2022/03/10 18:42:10;;;;;;;5.85;5.25;;;16.60;52.50;;;;;;2277758;62;30122;-70
2022/03/10 18:44:38;;;;;;;6.10;4.80;;;16.60;52.80;;;;;;2285529;62;30054;-70
2022/03/10 18:47:07;;;;;;;6.30;5.13;;;16.60;52.90;;;;;;2285580;62;30103;-70
2022/03/10 18:49:34;;;;;;;10.20;5.03;;;16.60;53.10;;;;;;2278131;62;30067;-70
2022/03/10 18:52:01;;;;;;;7.90;4.70;;;16.70;53.30;;;;;;2285250;62;30173;-70
2022/03/10 18:54:26;;;;;;;6.50;4.47;;;16.70;53.30;;;;;;2271338;62;30123;-70
2022/03/10 18:56:52;;;;;;;5.22;3.70;;;16.80;54.20;;;;;;2285226;62;30244;-70
2022/03/10 18:59:18;;;;;;;7.78;4.10;;;16.90;53.60;;;;;;2285403;62;31078;-71
2022/03/10 19:01:45;;;;;;;4.50;3.50;;;16.90;53.70;;;;;;2277866;62;30071;-71
2022/03/10 19:04:11;;;;;;;3.60;3.22;;;17.00;53.60;;;;;;2283637;62;30374;-70
2022/03/10 19:06:39;;;;;;;3.70;3.40;;;17.10;53.90;;;;;;2284252;62;30754;-71
2022/03/10 19:09:05;;;;;;;5.97;3.20;;;17.10;54.20;;;;;;2278273;62;30220;-73
2022/03/10 19:11:31;;;;;;;3.42;3.13;;;17.10;54.20;;;;;;2285232;62;30011;-74
2022/03/10 19:14:00;;;;;;;2.80;2.60;;;17.20;54.30;;;;;;2284914;62;30122;-70
2022/03/10 19:16:26;;;;;;;3.35;2.97;;;17.20;54.20;;;;;;2285049;62;31778;-71
2022/03/10 19:18:52;;;;;;;3.17;2.88;;;17.30;54.20;;;;;;2285434;62;29981;-71
2022/03/10 19:21:21;;;;;;;3.85;2.95;;;17.40;54.30;;;;;;2280010;62;30361;-71
2022/03/10 19:23:46;;;;;;;2.42;2.25;;;17.50;54.10;;;;;;2283352;62;30055;-72
2022/03/10 19:26:12;;;;;;;4.40;2.45;;;17.50;54.10;;;;;;2282844;62;30784;-72
2022/03/10 19:28:38;;;;;;;3.38;2.90;;;17.50;54.30;;;;;;2283352;62;31870;-73
2022/03/10 19:31:04;;;;;;;2.83;2.60;;;17.50;54.40;;;;;;2283439;62;30408;-73
2022/03/10 19:33:30;;;;;;;3.25;2.47;;;17.50;54.60;;;;;;2283324;62;30283;-73
2022/03/10 19:35:56;;;;;;;4.28;2.47;;;17.50;54.90;;;;;;2283590;62;30162;-73
2022/03/10 19:38:28;;;;;;;2.35;2.15;;;17.50;54.90;;;;;;2283027;62;30458;-73
2022/03/10 19:40:58;;;;;;;2.45;2.22;;;17.50;55.00;;;;;;2275611;62;30333;-72
2022/03/10 19:43:28;;;;;;;2.42;2.25;;;17.50;55.10;;;;;;2283901;62;30138;-73
2022/03/10 19:45:54;;;;;;;2.60;2.40;;;17.60;55.20;;;;;;2269325;62;30442;-71
2022/03/10 19:48:21;;;;;;;2.30;2.10;;;17.60;55.00;;;;;;2283706;62;31777;-73
2022/03/10 19:50:47;;;;;;;2.45;2.25;;;17.60;55.10;;;;;;2276324;62;30171;-73
2022/03/10 19:53:13;;;;;;;3.05;2.45;;;17.60;55.30;;;;;;2281399;62;30870;-74
2022/03/10 19:55:39;;;;;;;2.72;2.10;;;17.60;55.30;;;;;;2276086;62;30193;-74
2022/03/10 19:58:06;;;;;;;2.40;2.10;;;17.60;55.40;;;;;;2276295;62;30453;-74
2022/03/10 20:00:32;;;;;;;2.70;2.00;;;17.60;55.40;;;;;;2283381;62;30568;-72
2022/03/10 20:03:01;;;;;;;2.08;1.88;;;17.60;55.30;;;;;;2282649;62;31980;-72
2022/03/10 20:05:27;;;;;;;2.00;1.90;;;17.60;55.40;;;;;;2283209;62;30029;-73
2022/03/10 20:07:53;;;;;;;2.15;2.00;;;17.70;55.50;;;;;;2275930;62;30732;-71
2022/03/10 20:10:19;;;;;;;2.50;2.25;;;17.70;55.60;;;;;;2283701;62;30073;-73
2022/03/10 20:12:45;;;;;;;2.33;2.13;;;17.70;55.90;;;;;;2283401;62;30381;-74
2022/03/10 20:15:12;;;;;;;2.33;2.13;;;17.70;55.80;;;;;;2276253;62;30164;-74
2022/03/10 20:17:38;;;;;;;2.30;2.10;;;17.70;56.00;;;;;;2283629;62;30086;-73
2022/03/10 20:20:05;;;;;;;2.03;1.92;;;17.60;55.90;;;;;;2283497;62;30063;-72
2022/03/10 20:22:31;;;;;;;2.03;1.92;;;17.60;56.00;;;;;;2276273;62;30122;-71
2022/03/10 20:24:57;;;;;;;2.05;1.95;;;17.60;56.00;;;;;;2283423;62;30242;-74
2022/03/10 20:27:25;;;;;;;1.90;1.80;;;17.60;56.20;;;;;;2283372;62;30200;-72
2022/03/10 20:29:51;;;;;;;1.90;1.80;;;17.60;56.10;;;;;;2276323;62;30531;-74
2022/03/10 20:32:17;;;;;;;2.58;2.38;;;17.70;56.20;;;;;;2283394;62;30078;-72
2022/03/10 20:34:43;;;;;;;2.40;2.20;;;17.70;56.40;;;;;;2280954;62;30884;-73
2022/03/10 20:37:09;;;;;;;1.92;1.83;;;17.70;56.40;;;;;;2275922;62;30362;-70
2022/03/10 20:39:34;;;;;;;2.10;2.00;;;17.60;56.60;;;;;;2283564;62;30076;-71
2022/03/10 20:42:00;;;;;;;2.40;2.20;;;17.60;56.70;;;;;;2282594;62;30160;-72
2022/03/10 20:44:26;;;;;;;2.47;1.90;;;17.60;56.80;;;;;;2282147;62;30710;-71
2022/03/10 20:46:52;;;;;;;2.25;1.80;;;17.60;56.70;;;;;;2268330;62;31008;-72
2022/03/10 20:49:18;;;;;;;1.92;1.83;;;17.70;56.70;;;;;;2282155;62;30227;-72
2022/03/10 20:51:44;;;;;;;2.30;2.13;;;17.70;56.80;;;;;;2269158;62;30585;-73
2022/03/10 20:54:10;;;;;;;4.18;2.20;;;17.60;56.70;;;;;;2282626;62;30858;-71
2022/03/10 20:56:40;;;;;;;3.53;1.88;;;17.60;56.80;;;;;;2282413;62;31798;-71
2022/03/10 20:59:06;;;;;;;2.58;1.90;;;17.60;57.00;;;;;;2269659;62;30197;-72
2022/03/10 21:01:32;;;;;;;2.58;1.90;;;17.60;57.10;;;;;;2283287;62;30713;-72
2022/03/10 21:03:58;;;;;;;4.40;2.70;;;17.70;57.20;;;;;;2280877;62;30340;-72
2022/03/10 21:06:23;;;;;;;3.53;2.38;;;17.70;57.40;;;;;;2282498;62;32197;-72
2022/03/10 21:08:49;;;;;;;3.17;2.35;;;17.70;57.40;;;;;;2283213;62;30460;-73
2022/03/10 21:11:19;;;;;;;3.25;2.20;;;17.70;57.40;;;;;;2283434;62;30363;-73
2022/03/10 21:13:45;;;;;;;2.90;2.70;;;17.60;57.50;;;;;;2276010;62;30177;-72
2022/03/10 21:16:13;;;;;;;2.20;2.10;;;17.60;57.60;;;;;;2275121;62;30842;-73
2022/03/10 21:18:39;;;;;;;6.38;2.50;;;17.60;57.60;;;;;;2275112;62;30176;-73
2022/03/10 21:21:05;;;;;;;4.72;2.05;;;17.60;57.70;;;;;;2276424;62;30626;-73
2022/03/10 21:23:32;;;;;;;7.50;2.38;;;17.60;57.80;;;;;;2271848;62;30710;-71
2022/03/10 21:25:58;;;;;;;5.22;2.20;;;17.60;58.00;;;;;;2275784;62;30678;-69
2022/03/10 21:28:23;;;;;;;2.53;2.28;;;17.70;57.90;;;;;;2275572;62;30767;-69
2022/03/10 21:30:49;;;;;;;5.03;2.20;;;17.60;57.60;;;;;;2283156;62;30079;-69
2022/03/10 21:33:16;;;;;;;3.20;2.50;;;17.60;57.50;;;;;;2275952;62;30433;-70
2022/03/10 21:35:41;;;;;;;3.97;2.88;;;17.60;57.80;;;;;;2275898;62;30451;-70
2022/03/10 21:38:07;;;;;;;3.15;2.13;;;17.70;57.70;;;;;;2278198;62;30902;-71
2022/03/10 21:40:33;;;;;;;2.38;2.08;;;17.60;57.60;;;;;;2261009;62;30229;-72
2022/03/10 21:43:00;;;;;;;2.10;2.00;;;17.60;57.70;;;;;;2278350;62;30955;-73
2022/03/10 21:45:26;;;;;;;2.70;2.20;;;17.60;57.80;;;;;;2277194;62;30771;-71
2022/03/10 21:47:52;;;;;;;2.42;2.15;;;17.60;58.00;;;;;;2267769;62;30901;-72
2022/03/10 21:50:18;;;;;;;2.78;2.40;;;17.70;58.30;;;;;;2279065;62;30800;-71
2022/03/10 21:52:44;;;;;;;2.50;2.30;;;17.70;58.50;;;;;;2280110;62;30210;-71
2022/03/10 21:55:10;;;;;;;3.55;2.50;;;17.60;58.30;;;;;;2267592;62;30233;-68
2022/03/10 21:57:36;;;;;;;2.30;2.10;;;17.60;58.40;;;;;;2267712;62;30789;-68
2022/03/10 22:00:03;;;;;;;2.35;2.15;;;17.60;58.40;;;;;;2274646;62;30074;-68
2022/03/10 22:02:29;;;;;;;2.00;1.80;;;17.60;58.40;;;;;;2267600;62;30078;-68
2022/03/10 22:04:54;;;;;;;2.15;2.03;;;17.60;58.30;;;;;;2277102;62;30507;-68
2022/03/10 22:07:20;;;;;;;6.50;2.20;;;17.60;58.40;;;;;;2279607;62;31038;-69
2022/03/10 22:09:46;;;;;;;2.88;2.20;;;17.60;58.30;;;;;;2278509;62;30501;-68
2022/03/10 22:12:12;;;;;;;2.47;2.28;;;17.60;58.30;;;;;;2282218;62;30726;-69
2022/03/10 22:14:38;;;;;;;1.90;1.80;;;17.60;58.50;;;;;;2283150;62;30154;-70
2022/03/10 22:17:05;;;;;;;2.45;1.77;;;17.50;58.50;;;;;;2275737;62;30006;-69
2022/03/10 22:19:31;;;;;;;2.65;1.95;;;17.50;58.50;;;;;;2281957;62;30630;-69
2022/03/10 22:21:57;;;;;;;2.45;2.25;;;17.50;58.50;;;;;;2282352;62;30375;-69
2022/03/10 22:24:24;;;;;;;4.15;2.10;;;17.50;58.50;;;;;;2275801;62;30447;-69
2022/03/10 22:26:51;;;;;;;2.72;2.05;;;17.50;58.50;;;;;;2275519;62;30581;-69
2022/03/10 22:29:17;;;;;;;3.63;1.90;;;17.50;58.50;;;;;;2283135;62;30071;-68
2022/03/10 22:31:43;;;;;;;3.75;3.38;;;17.50;58.60;;;;;;2283012;62;29937;-69
2022/03/10 22:34:09;;;;;;;4.28;3.00;;;17.40;58.70;;;;;;2282802;62;31726;-70
2022/03/10 22:36:35;;;;;;;6.78;3.22;;;17.40;58.70;;;;;;2268769;62;30449;-69
2022/03/10 22:39:01;;;;;;;4.60;2.88;;;17.40;58.70;;;;;;2268839;62;30102;-69
2022/03/10 22:41:27;;;;;;;8.57;3.08;;;17.30;58.70;;;;;;2275076;62;30178;-70
2022/03/10 22:43:53;;;;;;;2.78;2.50;;;17.30;58.80;;;;;;2275247;62;30158;-70
2022/03/10 22:46:20;;;;;;;7.15;3.25;;;17.30;58.80;;;;;;2275571;62;29999;-69
2022/03/10 22:48:46;;;;;;;4.68;2.85;;;17.20;58.80;;;;;;2275514;62;30597;-68
2022/03/10 22:54:16;;;;;;;3.25;2.90;;;17.10;58.90;;;;;;2275876;62;32635;-68